sensor_id;sensor_type;location;lat;lon;timestamp;temperature;humidity
674;DHT22;319;48.764;9.174;2023-11-19T00:00:48;9.80;99.90
674;DHT22;319;48.764;9.174;2023-11-19T00:03:15;9.80;99.90
674;DHT22;319;48.764;9.174;2023-11-19T00:05:43;9.80;99.90
674;DHT22;319;48.764;9.174;2023-11-19T00:08:11;9.80;99.90
674;DHT22;319;48.764;9.174;2023-11-19T00:10:39;9.80;99.90
674;DHT22;319;48.764;9.174;2023-11-19T00:13:06;9.90;99.90
674;DHT22;319;48.764;9.174;2023-11-19T00:15:33;9.90;99.90
674;DHT22;319;48.764;9.174;2023-11-19T00:18:00;10.00;99.90
674;DHT22;319;48.764;9.174;2023-11-19T00:20:30;10.00;99.90
674;DHT22;319;48.764;9.174;2023-11-19T00:22:56;10.00;99.90
674;DHT22;319;48.764;9.174;2023-11-19T00:25:23;10.00;99.90
674;DHT22;319;48.764;9.174;2023-11-19T00:27:52;10.10;99.90
674;DHT22;319;48.764;9.174;2023-11-19T00:30:19;10.10;99.90
674;DHT22;319;48.764;9.174;2023-11-19T00:32:46;10.10;99.90
674;DHT22;319;48.764;9.174;2023-11-19T00:35:12;10.10;99.90
674;DHT22;319;48.764;9.174;2023-11-19T00:37:40;10.20;99.90
674;DHT22;319;48.764;9.174;2023-11-19T00:40:09;10.20;99.90
674;DHT22;319;48.764;9.174;2023-11-19T00:42:36;10.20;99.90
674;DHT22;319;48.764;9.174;2023-11-19T00:45:05;10.30;99.90
674;DHT22;319;48.764;9.174;2023-11-19T00:47:34;10.30;99.90
674;DHT22;319;48.764;9.174;2023-11-19T00:50:01;10.40;99.90
674;DHT22;319;48.764;9.174;2023-11-19T00:52:27;10.40;99.90
674;DHT22;319;48.764;9.174;2023-11-19T00:54:54;10.40;99.90
674;DHT22;319;48.764;9.174;2023-11-19T00:57:22;10.50;99.90
674;DHT22;319;48.764;9.174;2023-11-19T00:59:49;10.50;99.90
674;DHT22;319;48.764;9.174;2023-11-19T01:02:17;10.60;99.90
674;DHT22;319;48.764;9.174;2023-11-19T01:04:44;10.60;99.90
674;DHT22;319;48.764;9.174;2023-11-19T01:07:11;10.60;99.90
674;DHT22;319;48.764;9.174;2023-11-19T01:09:38;10.70;99.90
674;DHT22;319;48.764;9.174;2023-11-19T01:12:06;10.70;99.90
674;DHT22;319;48.764;9.174;2023-11-19T01:14:33;10.80;99.90
674;DHT22;319;48.764;9.174;2023-11-19T01:17:01;10.90;99.90
674;DHT22;319;48.764;9.174;2023-11-19T01:19:29;10.90;99.90
674;DHT22;319;48.764;9.174;2023-11-19T01:21:56;11.00;99.90
674;DHT22;319;48.764;9.174;2023-11-19T01:24:22;11.00;99.90
674;DHT22;319;48.764;9.174;2023-11-19T01:26:49;11.10;99.90
674;DHT22;319;48.764;9.174;2023-11-19T01:29:17;11.10;99.90
674;DHT22;319;48.764;9.174;2023-11-19T01:31:46;11.20;99.90
674;DHT22;319;48.764;9.174;2023-11-19T01:34:13;11.20;99.90
674;DHT22;319;48.764;9.174;2023-11-19T01:36:41;11.30;99.90
674;DHT22;319;48.764;9.174;2023-11-19T01:39:07;11.40;99.90
674;DHT22;319;48.764;9.174;2023-11-19T01:41:34;11.40;99.90
674;DHT22;319;48.764;9.174;2023-11-19T01:44:02;11.50;99.90
674;DHT22;319;48.764;9.174;2023-11-19T01:46:28;11.50;99.90
674;DHT22;319;48.764;9.174;2023-11-19T01:48:56;11.50;99.90
674;DHT22;319;48.764;9.174;2023-11-19T01:51:23;11.50;99.90
674;DHT22;319;48.764;9.174;2023-11-19T01:53:52;11.60;99.90
674;DHT22;319;48.764;9.174;2023-11-19T01:56:20;11.60;99.90
674;DHT22;319;48.764;9.174;2023-11-19T01:58:48;11.60;99.90
674;DHT22;319;48.764;9.174;2023-11-19T02:01:16;11.60;99.90
674;DHT22;319;48.764;9.174;2023-11-19T02:03:43;11.70;99.90
674;DHT22;319;48.764;9.174;2023-11-19T02:06:10;11.70;99.90
674;DHT22;319;48.764;9.174;2023-11-19T02:08:36;11.70;99.90
674;DHT22;319;48.764;9.174;2023-11-19T02:11:05;11.70;99.90
674;DHT22;319;48.764;9.174;2023-11-19T02:13:33;11.80;99.90
674;DHT22;319;48.764;9.174;2023-11-19T02:16:01;11.80;99.90
674;DHT22;319;48.764;9.174;2023-11-19T02:18:28;11.80;99.90
674;DHT22;319;48.764;9.174;2023-11-19T02:20:55;11.80;99.90
674;DHT22;319;48.764;9.174;2023-11-19T02:23:23;11.80;99.90
674;DHT22;319;48.764;9.174;2023-11-19T02:26:01;11.80;99.90
674;DHT22;319;48.764;9.174;2023-11-19T02:28:30;11.70;99.90
674;DHT22;319;48.764;9.174;2023-11-19T02:30:58;11.80;99.90
674;DHT22;319;48.764;9.174;2023-11-19T02:33:25;11.80;99.90
674;DHT22;319;48.764;9.174;2023-11-19T02:35:51;11.80;99.90
674;DHT22;319;48.764;9.174;2023-11-19T02:38:18;11.90;99.90
674;DHT22;319;48.764;9.174;2023-11-19T02:40:47;11.90;99.90
674;DHT22;319;48.764;9.174;2023-11-19T02:43:14;11.90;99.90
674;DHT22;319;48.764;9.174;2023-11-19T02:45:43;11.90;99.90
674;DHT22;319;48.764;9.174;2023-11-19T02:48:11;11.90;99.90
674;DHT22;319;48.764;9.174;2023-11-19T02:50:39;12.00;99.90
674;DHT22;319;48.764;9.174;2023-11-19T02:53:07;12.10;99.90
674;DHT22;319;48.764;9.174;2023-11-19T02:55:34;12.10;99.90
674;DHT22;319;48.764;9.174;2023-11-19T02:58:03;12.10;99.90
674;DHT22;319;48.764;9.174;2023-11-19T03:00:46;12.10;99.90
674;DHT22;319;48.764;9.174;2023-11-19T03:03:19;12.10;99.90
674;DHT22;319;48.764;9.174;2023-11-19T03:05:48;12.10;99.90
674;DHT22;319;48.764;9.174;2023-11-19T03:08:15;12.20;99.90
674;DHT22;319;48.764;9.174;2023-11-19T03:10:43;12.10;99.90
674;DHT22;319;48.764;9.174;2023-11-19T03:13:11;12.20;99.90
674;DHT22;319;48.764;9.174;2023-11-19T03:15:39;12.20;99.90
674;DHT22;319;48.764;9.174;2023-11-19T03:18:07;12.20;99.90
674;DHT22;319;48.764;9.174;2023-11-19T03:20:34;12.30;99.90
674;DHT22;319;48.764;9.174;2023-11-19T03:23:01;12.30;99.90
674;DHT22;319;48.764;9.174;2023-11-19T03:25:28;12.40;99.90
674;DHT22;319;48.764;9.174;2023-11-19T03:27:59;12.30;99.90
674;DHT22;319;48.764;9.174;2023-11-19T03:30:26;12.30;99.90
674;DHT22;319;48.764;9.174;2023-11-19T03:32:53;12.40;99.90
674;DHT22;319;48.764;9.174;2023-11-19T03:35:22;12.30;99.90
674;DHT22;319;48.764;9.174;2023-11-19T03:37:48;12.30;99.90
674;DHT22;319;48.764;9.174;2023-11-19T03:40:15;12.20;99.90
674;DHT22;319;48.764;9.174;2023-11-19T03:42:42;12.20;99.90
674;DHT22;319;48.764;9.174;2023-11-19T03:45:09;12.20;99.90
674;DHT22;319;48.764;9.174;2023-11-19T03:47:36;12.30;99.90
674;DHT22;319;48.764;9.174;2023-11-19T03:50:05;12.30;99.90
674;DHT22;319;48.764;9.174;2023-11-19T03:52:34;12.30;99.90
674;DHT22;319;48.764;9.174;2023-11-19T03:55:01;12.30;99.90
674;DHT22;319;48.764;9.174;2023-11-19T03:57:28;12.30;99.90
674;DHT22;319;48.764;9.174;2023-11-19T03:59:55;12.30;99.90
674;DHT22;319;48.764;9.174;2023-11-19T04:02:24;12.30;99.90
674;DHT22;319;48.764;9.174;2023-11-19T04:04:53;12.30;99.90
674;DHT22;319;48.764;9.174;2023-11-19T04:07:20;12.30;99.90
674;DHT22;319;48.764;9.174;2023-11-19T04:09:48;12.20;99.90
674;DHT22;319;48.764;9.174;2023-11-19T04:12:15;12.20;99.90
674;DHT22;319;48.764;9.174;2023-11-19T04:14:42;12.20;99.90
674;DHT22;319;48.764;9.174;2023-11-19T04:17:09;12.30;99.90
674;DHT22;319;48.764;9.174;2023-11-19T04:19:36;12.30;99.90
674;DHT22;319;48.764;9.174;2023-11-19T04:22:03;12.30;99.90
674;DHT22;319;48.764;9.174;2023-11-19T04:24:30;12.30;99.90
674;DHT22;319;48.764;9.174;2023-11-19T04:26:58;12.40;99.90
674;DHT22;319;48.764;9.174;2023-11-19T04:29:25;12.30;99.90
674;DHT22;319;48.764;9.174;2023-11-19T04:31:52;12.40;99.90
674;DHT22;319;48.764;9.174;2023-11-19T04:34:19;12.40;99.90
674;DHT22;319;48.764;9.174;2023-11-19T04:36:46;12.40;99.90
674;DHT22;319;48.764;9.174;2023-11-19T04:39:13;12.50;99.90
674;DHT22;319;48.764;9.174;2023-11-19T04:41:47;12.50;99.90
674;DHT22;319;48.764;9.174;2023-11-19T04:44:16;12.50;99.90
674;DHT22;319;48.764;9.174;2023-11-19T04:46:43;12.50;99.90
674;DHT22;319;48.764;9.174;2023-11-19T04:49:10;12.50;99.90
674;DHT22;319;48.764;9.174;2023-11-19T04:51:38;12.60;99.90
674;DHT22;319;48.764;9.174;2023-11-19T04:54:06;12.60;99.90
674;DHT22;319;48.764;9.174;2023-11-19T04:56:34;12.60;99.90
674;DHT22;319;48.764;9.174;2023-11-19T04:59:00;12.70;99.90
674;DHT22;319;48.764;9.174;2023-11-19T05:01:29;12.60;99.90
674;DHT22;319;48.764;9.174;2023-11-19T05:03:56;12.70;99.90
674;DHT22;319;48.764;9.174;2023-11-19T05:06:26;12.70;99.90
674;DHT22;319;48.764;9.174;2023-11-19T05:08:54;12.70;99.90
674;DHT22;319;48.764;9.174;2023-11-19T05:11:21;12.70;99.90
674;DHT22;319;48.764;9.174;2023-11-19T05:13:48;12.70;99.90
674;DHT22;319;48.764;9.174;2023-11-19T05:16:15;12.60;99.90
674;DHT22;319;48.764;9.174;2023-11-19T05:18:44;12.70;99.90
674;DHT22;319;48.764;9.174;2023-11-19T05:21:11;12.70;99.90
674;DHT22;319;48.764;9.174;2023-11-19T05:23:38;12.70;99.90
674;DHT22;319;48.764;9.174;2023-11-19T05:26:05;12.80;99.90
674;DHT22;319;48.764;9.174;2023-11-19T05:28:32;12.80;99.90
674;DHT22;319;48.764;9.174;2023-11-19T05:30:58;12.80;99.90
674;DHT22;319;48.764;9.174;2023-11-19T05:33:26;12.80;99.90
674;DHT22;319;48.764;9.174;2023-11-19T05:35:54;12.80;99.90
674;DHT22;319;48.764;9.174;2023-11-19T05:38:22;12.80;99.90
674;DHT22;319;48.764;9.174;2023-11-19T05:40:49;12.80;99.90
674;DHT22;319;48.764;9.174;2023-11-19T05:43:16;12.80;99.90
674;DHT22;319;48.764;9.174;2023-11-19T05:45:43;12.80;99.90
674;DHT22;319;48.764;9.174;2023-11-19T05:48:10;12.80;99.90
674;DHT22;319;48.764;9.174;2023-11-19T05:50:37;12.80;99.90
674;DHT22;319;48.764;9.174;2023-11-19T05:53:05;12.90;99.90
674;DHT22;319;48.764;9.174;2023-11-19T05:55:35;12.90;99.90
674;DHT22;319;48.764;9.174;2023-11-19T05:58:03;13.00;99.90
674;DHT22;319;48.764;9.174;2023-11-19T06:00:32;13.00;99.90
674;DHT22;319;48.764;9.174;2023-11-19T06:02:58;13.00;99.90
674;DHT22;319;48.764;9.174;2023-11-19T06:05:25;13.00;99.90
674;DHT22;319;48.764;9.174;2023-11-19T06:07:52;13.00;99.90
674;DHT22;319;48.764;9.174;2023-11-19T06:10:20;12.90;99.90
674;DHT22;319;48.764;9.174;2023-11-19T06:12:47;12.90;99.90
674;DHT22;319;48.764;9.174;2023-11-19T06:15:21;13.00;99.90
674;DHT22;319;48.764;9.174;2023-11-19T06:17:48;12.90;99.90
674;DHT22;319;48.764;9.174;2023-11-19T06:20:14;12.90;99.90
674;DHT22;319;48.764;9.174;2023-11-19T06:22:42;12.90;99.90
674;DHT22;319;48.764;9.174;2023-11-19T06:25:11;13.00;99.90
674;DHT22;319;48.764;9.174;2023-11-19T06:27:41;13.00;99.90
674;DHT22;319;48.764;9.174;2023-11-19T06:30:09;13.00;99.90
674;DHT22;319;48.764;9.174;2023-11-19T06:32:37;13.00;99.90
674;DHT22;319;48.764;9.174;2023-11-19T06:35:04;13.00;99.90
674;DHT22;319;48.764;9.174;2023-11-19T06:37:31;13.00;99.90
674;DHT22;319;48.764;9.174;2023-11-19T06:39:58;13.00;99.90
674;DHT22;319;48.764;9.174;2023-11-19T06:42:25;13.00;99.90
674;DHT22;319;48.764;9.174;2023-11-19T06:44:53;13.10;99.90
674;DHT22;319;48.764;9.174;2023-11-19T06:47:22;13.10;99.90
674;DHT22;319;48.764;9.174;2023-11-19T06:49:51;13.10;99.90
674;DHT22;319;48.764;9.174;2023-11-19T06:52:18;13.10;99.90
674;DHT22;319;48.764;9.174;2023-11-19T06:54:44;13.20;99.90
674;DHT22;319;48.764;9.174;2023-11-19T06:57:12;13.20;99.90
674;DHT22;319;48.764;9.174;2023-11-19T06:59:39;13.20;99.90
674;DHT22;319;48.764;9.174;2023-11-19T07:02:07;13.20;99.90
674;DHT22;319;48.764;9.174;2023-11-19T07:04:34;13.20;99.90
674;DHT22;319;48.764;9.174;2023-11-19T07:07:01;13.10;99.90
674;DHT22;319;48.764;9.174;2023-11-19T07:09:27;13.10;99.90
674;DHT22;319;48.764;9.174;2023-11-19T07:11:54;13.10;99.90
674;DHT22;319;48.764;9.174;2023-11-19T07:14:21;13.00;99.90
674;DHT22;319;48.764;9.174;2023-11-19T07:16:49;13.00;99.90
674;DHT22;319;48.764;9.174;2023-11-19T07:19:17;13.00;99.90
674;DHT22;319;48.764;9.174;2023-11-19T07:21:44;13.00;99.90
674;DHT22;319;48.764;9.174;2023-11-19T07:24:11;13.00;99.90
674;DHT22;319;48.764;9.174;2023-11-19T07:26:42;13.00;99.90
674;DHT22;319;48.764;9.174;2023-11-19T07:29:09;13.00;99.90
674;DHT22;319;48.764;9.174;2023-11-19T07:31:35;13.00;99.90
674;DHT22;319;48.764;9.174;2023-11-19T07:34:03;13.00;99.90
674;DHT22;319;48.764;9.174;2023-11-19T07:36:32;13.00;99.90
674;DHT22;319;48.764;9.174;2023-11-19T07:38:58;13.00;99.90
674;DHT22;319;48.764;9.174;2023-11-19T07:41:25;13.10;99.90
674;DHT22;319;48.764;9.174;2023-11-19T07:43:52;13.10;99.90
674;DHT22;319;48.764;9.174;2023-11-19T07:46:20;13.20;99.90
674;DHT22;319;48.764;9.174;2023-11-19T07:48:46;13.20;99.90
674;DHT22;319;48.764;9.174;2023-11-19T07:51:14;13.20;99.90
674;DHT22;319;48.764;9.174;2023-11-19T07:53:42;13.30;99.90
674;DHT22;319;48.764;9.174;2023-11-19T07:56:09;13.30;99.90
674;DHT22;319;48.764;9.174;2023-11-19T07:58:36;13.30;99.90
674;DHT22;319;48.764;9.174;2023-11-19T08:01:04;13.40;99.90
674;DHT22;319;48.764;9.174;2023-11-19T08:03:31;13.40;99.90
674;DHT22;319;48.764;9.174;2023-11-19T08:06:00;13.40;99.90
674;DHT22;319;48.764;9.174;2023-11-19T08:08:27;13.40;99.90
674;DHT22;319;48.764;9.174;2023-11-19T08:10:56;13.50;99.90
674;DHT22;319;48.764;9.174;2023-11-19T08:13:23;13.60;99.90
674;DHT22;319;48.764;9.174;2023-11-19T08:15:50;13.60;99.90
674;DHT22;319;48.764;9.174;2023-11-19T08:18:17;13.60;99.90
674;DHT22;319;48.764;9.174;2023-11-19T08:20:44;13.60;99.90
674;DHT22;319;48.764;9.174;2023-11-19T08:23:15;13.70;99.90
674;DHT22;319;48.764;9.174;2023-11-19T08:25:42;13.70;99.90
674;DHT22;319;48.764;9.174;2023-11-19T08:28:11;13.70;99.90
674;DHT22;319;48.764;9.174;2023-11-19T08:30:38;13.70;99.90
674;DHT22;319;48.764;9.174;2023-11-19T08:33:05;13.70;99.90
674;DHT22;319;48.764;9.174;2023-11-19T08:35:32;13.80;99.90
674;DHT22;319;48.764;9.174;2023-11-19T08:37:59;14.00;99.90
674;DHT22;319;48.764;9.174;2023-11-19T08:40:26;14.20;99.90
674;DHT22;319;48.764;9.174;2023-11-19T08:42:53;14.40;99.90
674;DHT22;319;48.764;9.174;2023-11-19T08:45:22;14.50;99.90
674;DHT22;319;48.764;9.174;2023-11-19T08:47:49;14.60;99.90
674;DHT22;319;48.764;9.174;2023-11-19T08:50:16;14.60;99.90
674;DHT22;319;48.764;9.174;2023-11-19T08:52:43;14.70;99.90
674;DHT22;319;48.764;9.174;2023-11-19T08:55:09;14.60;99.90
674;DHT22;319;48.764;9.174;2023-11-19T08:57:39;14.60;99.90
674;DHT22;319;48.764;9.174;2023-11-19T09:00:07;14.60;99.90
674;DHT22;319;48.764;9.174;2023-11-19T09:02:35;14.60;99.90
674;DHT22;319;48.764;9.174;2023-11-19T09:05:02;14.60;99.90
674;DHT22;319;48.764;9.174;2023-11-19T09:07:29;14.70;99.90
674;DHT22;319;48.764;9.174;2023-11-19T09:09:56;14.80;99.90
674;DHT22;319;48.764;9.174;2023-11-19T09:12:23;14.90;99.90
674;DHT22;319;48.764;9.174;2023-11-19T09:14:50;15.10;99.90
674;DHT22;319;48.764;9.174;2023-11-19T09:17:16;15.30;99.90
674;DHT22;319;48.764;9.174;2023-11-19T09:19:45;15.40;99.90
674;DHT22;319;48.764;9.174;2023-11-19T09:22:12;15.50;99.90
674;DHT22;319;48.764;9.174;2023-11-19T09:24:39;15.60;99.90
674;DHT22;319;48.764;9.174;2023-11-19T09:27:05;15.60;99.90
674;DHT22;319;48.764;9.174;2023-11-19T09:29:32;15.60;99.90
674;DHT22;319;48.764;9.174;2023-11-19T09:31:59;15.60;99.90
674;DHT22;319;48.764;9.174;2023-11-19T09:34:26;15.70;99.90
674;DHT22;319;48.764;9.174;2023-11-19T09:36:57;15.80;99.90
674;DHT22;319;48.764;9.174;2023-11-19T09:39:24;16.10;99.90
674;DHT22;319;48.764;9.174;2023-11-19T09:41:51;16.30;99.90
674;DHT22;319;48.764;9.174;2023-11-19T09:44:18;16.50;99.90
674;DHT22;319;48.764;9.174;2023-11-19T09:46:50;16.50;99.90
674;DHT22;319;48.764;9.174;2023-11-19T09:49:21;16.50;99.90
674;DHT22;319;48.764;9.174;2023-11-19T09:51:49;16.40;99.90
674;DHT22;319;48.764;9.174;2023-11-19T09:54:17;16.40;99.90
674;DHT22;319;48.764;9.174;2023-11-19T09:56:44;16.30;99.90
674;DHT22;319;48.764;9.174;2023-11-19T09:59:11;16.30;99.90
674;DHT22;319;48.764;9.174;2023-11-19T10:01:38;16.30;99.90
674;DHT22;319;48.764;9.174;2023-11-19T10:04:06;16.40;99.90
674;DHT22;319;48.764;9.174;2023-11-19T10:06:33;16.40;99.90
674;DHT22;319;48.764;9.174;2023-11-19T10:09:00;16.60;99.90
674;DHT22;319;48.764;9.174;2023-11-19T10:11:28;16.70;99.90
674;DHT22;319;48.764;9.174;2023-11-19T10:13:55;16.70;99.90
674;DHT22;319;48.764;9.174;2023-11-19T10:16:28;16.50;99.90
674;DHT22;319;48.764;9.174;2023-11-19T10:18:56;16.70;99.90
674;DHT22;319;48.764;9.174;2023-11-19T10:21:24;16.80;99.90
674;DHT22;319;48.764;9.174;2023-11-19T10:23:55;16.80;99.90
674;DHT22;319;48.764;9.174;2023-11-19T10:26:23;17.00;99.90
674;DHT22;319;48.764;9.174;2023-11-19T10:28:55;17.20;99.90
674;DHT22;319;48.764;9.174;2023-11-19T10:31:34;17.20;99.90
674;DHT22;319;48.764;9.174;2023-11-19T10:34:01;17.40;99.90
674;DHT22;319;48.764;9.174;2023-11-19T10:36:38;17.50;99.90
674;DHT22;319;48.764;9.174;2023-11-19T10:39:07;17.60;99.90
674;DHT22;319;48.764;9.174;2023-11-19T10:41:35;17.70;99.90
674;DHT22;319;48.764;9.174;2023-11-19T10:44:04;17.90;99.90
674;DHT22;319;48.764;9.174;2023-11-19T10:46:37;18.10;99.90
674;DHT22;319;48.764;9.174;2023-11-19T10:49:05;18.00;99.90
674;DHT22;319;48.764;9.174;2023-11-19T10:51:33;18.10;99.90
674;DHT22;319;48.764;9.174;2023-11-19T10:54:09;18.20;99.90
674;DHT22;319;48.764;9.174;2023-11-19T10:56:55;18.40;99.90
674;DHT22;319;48.764;9.174;2023-11-19T11:03:50;18.70;99.90
674;DHT22;319;48.764;9.174;2023-11-19T11:07:12;18.70;99.90
674;DHT22;319;48.764;9.174;2023-11-19T11:10:20;18.50;99.40
674;DHT22;319;48.764;9.174;2023-11-19T11:13:23;18.50;99.20
674;DHT22;319;48.764;9.174;2023-11-19T11:15:50;18.30;97.70
674;DHT22;319;48.764;9.174;2023-11-19T11:18:17;18.10;97.70
674;DHT22;319;48.764;9.174;2023-11-19T11:20:46;17.90;98.40
674;DHT22;319;48.764;9.174;2023-11-19T11:23:37;17.80;98.40
674;DHT22;319;48.764;9.174;2023-11-19T11:26:25;17.70;98.10
674;DHT22;319;48.764;9.174;2023-11-19T11:28:59;17.60;98.30
674;DHT22;319;48.764;9.174;2023-11-19T11:31:36;17.70;98.50
674;DHT22;319;48.764;9.174;2023-11-19T11:37:16;17.50;98.10
674;DHT22;319;48.764;9.174;2023-11-19T11:39:50;17.40;98.00
674;DHT22;319;48.764;9.174;2023-11-19T11:42:36;17.50;98.70
674;DHT22;319;48.764;9.174;2023-11-19T11:45:05;17.40;98.30
674;DHT22;319;48.764;9.174;2023-11-19T11:48:08;17.40;98.20
674;DHT22;319;48.764;9.174;2023-11-19T11:50:52;17.40;98.30
674;DHT22;319;48.764;9.174;2023-11-19T11:53:21;17.30;98.30
674;DHT22;319;48.764;9.174;2023-11-19T11:55:56;17.30;98.00
674;DHT22;319;48.764;9.174;2023-11-19T11:58:32;17.40;98.10
674;DHT22;319;48.764;9.174;2023-11-19T12:01:03;17.40;97.90
674;DHT22;319;48.764;9.174;2023-11-19T12:03:32;17.60;98.00
674;DHT22;319;48.764;9.174;2023-11-19T12:06:00;17.60;97.70
674;DHT22;319;48.764;9.174;2023-11-19T12:08:29;17.60;97.50
674;DHT22;319;48.764;9.174;2023-11-19T12:10:58;17.70;97.70
674;DHT22;319;48.764;9.174;2023-11-19T12:13:42;17.70;97.50
674;DHT22;319;48.764;9.174;2023-11-19T12:16:10;17.80;97.70
674;DHT22;319;48.764;9.174;2023-11-19T12:18:39;17.90;97.30
674;DHT22;319;48.764;9.174;2023-11-19T12:21:08;18.00;97.30
674;DHT22;319;48.764;9.174;2023-11-19T12:23:45;17.90;97.40
674;DHT22;319;48.764;9.174;2023-11-19T12:26:33;17.70;97.00
674;DHT22;319;48.764;9.174;2023-11-19T12:29:00;17.60;97.10
674;DHT22;319;48.764;9.174;2023-11-19T12:31:35;17.60;97.40
674;DHT22;319;48.764;9.174;2023-11-19T12:34:08;17.60;96.90
674;DHT22;319;48.764;9.174;2023-11-19T12:36:39;17.50;96.40
674;DHT22;319;48.764;9.174;2023-11-19T12:39:09;17.50;96.30
674;DHT22;319;48.764;9.174;2023-11-19T12:41:51;17.40;96.40
674;DHT22;319;48.764;9.174;2023-11-19T12:44:18;17.30;96.60
674;DHT22;319;48.764;9.174;2023-11-19T12:46:45;17.30;96.90
674;DHT22;319;48.764;9.174;2023-11-19T12:49:14;17.20;96.40
674;DHT22;319;48.764;9.174;2023-11-19T12:51:43;17.20;95.80
674;DHT22;319;48.764;9.174;2023-11-19T12:54:09;17.00;95.10
674;DHT22;319;48.764;9.174;2023-11-19T12:56:37;17.10;95.40
674;DHT22;319;48.764;9.174;2023-11-19T12:59:12;17.10;95.50
674;DHT22;319;48.764;9.174;2023-11-19T13:01:39;17.10;95.50
674;DHT22;319;48.764;9.174;2023-11-19T13:04:17;17.10;95.50
674;DHT22;319;48.764;9.174;2023-11-19T13:06:46;17.00;95.40
674;DHT22;319;48.764;9.174;2023-11-19T13:09:23;16.90;95.00
674;DHT22;319;48.764;9.174;2023-11-19T13:11:51;16.80;94.80
674;DHT22;319;48.764;9.174;2023-11-19T13:14:18;16.70;94.80
674;DHT22;319;48.764;9.174;2023-11-19T13:16:46;16.70;94.90
674;DHT22;319;48.764;9.174;2023-11-19T13:19:13;16.70;95.00
674;DHT22;319;48.764;9.174;2023-11-19T13:21:41;16.80;94.10
674;DHT22;319;48.764;9.174;2023-11-19T13:24:10;16.80;94.00
674;DHT22;319;48.764;9.174;2023-11-19T13:26:37;16.70;93.50
674;DHT22;319;48.764;9.174;2023-11-19T13:29:04;16.70;93.60
674;DHT22;319;48.764;9.174;2023-11-19T13:31:31;16.70;93.80
674;DHT22;319;48.764;9.174;2023-11-19T13:33:58;16.70;93.90
674;DHT22;319;48.764;9.174;2023-11-19T13:36:24;16.60;93.60
674;DHT22;319;48.764;9.174;2023-11-19T13:38:51;16.60;93.80
674;DHT22;319;48.764;9.174;2023-11-19T13:41:25;16.70;94.10
674;DHT22;319;48.764;9.174;2023-11-19T13:43:52;16.60;94.20
674;DHT22;319;48.764;9.174;2023-11-19T13:46:19;16.70;94.40
674;DHT22;319;48.764;9.174;2023-11-19T13:48:46;16.60;94.40
674;DHT22;319;48.764;9.174;2023-11-19T13:51:15;16.60;94.60
674;DHT22;319;48.764;9.174;2023-11-19T13:53:41;16.50;94.80
674;DHT22;319;48.764;9.174;2023-11-19T13:56:09;16.50;95.00
674;DHT22;319;48.764;9.174;2023-11-19T13:58:37;16.40;94.50
674;DHT22;319;48.764;9.174;2023-11-19T14:01:06;16.30;94.80
674;DHT22;319;48.764;9.174;2023-11-19T14:03:32;16.30;94.60
674;DHT22;319;48.764;9.174;2023-11-19T14:05:59;16.20;94.60
674;DHT22;319;48.764;9.174;2023-11-19T14:08:26;16.10;94.40
674;DHT22;319;48.764;9.174;2023-11-19T14:10:53;16.10;94.40
674;DHT22;319;48.764;9.174;2023-11-19T14:13:21;16.10;94.50
674;DHT22;319;48.764;9.174;2023-11-19T14:15:51;16.00;94.30
674;DHT22;319;48.764;9.174;2023-11-19T14:18:18;16.00;94.30
674;DHT22;319;48.764;9.174;2023-11-19T14:20:44;16.00;94.20
674;DHT22;319;48.764;9.174;2023-11-19T14:23:14;15.90;94.30
674;DHT22;319;48.764;9.174;2023-11-19T14:25:41;15.90;94.70
674;DHT22;319;48.764;9.174;2023-11-19T14:28:08;16.00;94.40
674;DHT22;319;48.764;9.174;2023-11-19T14:30:34;16.00;94.30
674;DHT22;319;48.764;9.174;2023-11-19T14:33:03;16.00;94.50
674;DHT22;319;48.764;9.174;2023-11-19T14:35:30;16.00;94.70
674;DHT22;319;48.764;9.174;2023-11-19T14:37:58;16.00;94.70
674;DHT22;319;48.764;9.174;2023-11-19T14:40:25;16.00;94.80
674;DHT22;319;48.764;9.174;2023-11-19T14:42:52;16.00;94.90
674;DHT22;319;48.764;9.174;2023-11-19T14:45:19;16.00;95.10
674;DHT22;319;48.764;9.174;2023-11-19T14:47:46;15.90;95.30
674;DHT22;319;48.764;9.174;2023-11-19T14:50:14;15.90;95.50
674;DHT22;319;48.764;9.174;2023-11-19T14:52:41;15.90;95.50
674;DHT22;319;48.764;9.174;2023-11-19T14:55:08;15.80;95.70
674;DHT22;319;48.764;9.174;2023-11-19T14:57:37;15.70;95.80
674;DHT22;319;48.764;9.174;2023-11-19T15:00:37;15.70;96.10
674;DHT22;319;48.764;9.174;2023-11-19T15:03:45;15.70;96.10
674;DHT22;319;48.764;9.174;2023-11-19T15:06:50;15.60;96.00
674;DHT22;319;48.764;9.174;2023-11-19T15:09:54;15.50;96.20
674;DHT22;319;48.764;9.174;2023-11-19T15:12:40;15.40;96.20
674;DHT22;319;48.764;9.174;2023-11-19T15:15:11;15.40;96.10
674;DHT22;319;48.764;9.174;2023-11-19T15:17:39;15.40;96.00
674;DHT22;319;48.764;9.174;2023-11-19T15:20:07;15.40;96.10
674;DHT22;319;48.764;9.174;2023-11-19T15:22:35;15.30;95.90
674;DHT22;319;48.764;9.174;2023-11-19T15:25:02;15.30;96.00
674;DHT22;319;48.764;9.174;2023-11-19T15:27:31;15.20;96.00
674;DHT22;319;48.764;9.174;2023-11-19T15:29:59;15.20;96.20
674;DHT22;319;48.764;9.174;2023-11-19T15:32:26;15.20;96.20
674;DHT22;319;48.764;9.174;2023-11-19T15:34:53;15.10;96.30
674;DHT22;319;48.764;9.174;2023-11-19T15:37:20;15.10;96.40
674;DHT22;319;48.764;9.174;2023-11-19T15:39:48;15.00;96.30
674;DHT22;319;48.764;9.174;2023-11-19T15:42:16;15.00;96.40
674;DHT22;319;48.764;9.174;2023-11-19T15:44:43;14.90;96.40
674;DHT22;319;48.764;9.174;2023-11-19T15:47:10;14.90;96.50
674;DHT22;319;48.764;9.174;2023-11-19T15:49:38;14.90;96.40
674;DHT22;319;48.764;9.174;2023-11-19T15:52:05;14.80;96.50
674;DHT22;319;48.764;9.174;2023-11-19T15:54:32;14.80;96.70
674;DHT22;319;48.764;9.174;2023-11-19T15:57:01;14.80;96.90
674;DHT22;319;48.764;9.174;2023-11-19T15:59:28;14.80;97.00
674;DHT22;319;48.764;9.174;2023-11-19T16:01:54;14.70;97.10
674;DHT22;319;48.764;9.174;2023-11-19T16:04:22;14.70;97.10
674;DHT22;319;48.764;9.174;2023-11-19T16:06:49;14.70;97.00
674;DHT22;319;48.764;9.174;2023-11-19T16:09:16;14.60;96.90
674;DHT22;319;48.764;9.174;2023-11-19T16:11:44;14.60;97.00
674;DHT22;319;48.764;9.174;2023-11-19T16:14:12;14.50;97.20
674;DHT22;319;48.764;9.174;2023-11-19T16:16:40;14.50;97.20
674;DHT22;319;48.764;9.174;2023-11-19T16:19:07;14.50;97.50
674;DHT22;319;48.764;9.174;2023-11-19T16:21:34;14.50;97.60
674;DHT22;319;48.764;9.174;2023-11-19T16:24:01;14.40;97.50
674;DHT22;319;48.764;9.174;2023-11-19T16:26:28;14.40;97.70
674;DHT22;319;48.764;9.174;2023-11-19T16:28:56;14.40;97.80
674;DHT22;319;48.764;9.174;2023-11-19T16:31:24;14.40;98.00
674;DHT22;319;48.764;9.174;2023-11-19T16:33:51;14.40;98.10
674;DHT22;319;48.764;9.174;2023-11-19T16:36:18;14.40;98.10
674;DHT22;319;48.764;9.174;2023-11-19T16:38:45;14.40;98.30
674;DHT22;319;48.764;9.174;2023-11-19T16:41:13;14.30;98.40
674;DHT22;319;48.764;9.174;2023-11-19T16:43:45;14.30;98.40
674;DHT22;319;48.764;9.174;2023-11-19T16:46:12;14.30;98.60
674;DHT22;319;48.764;9.174;2023-11-19T16:48:40;14.20;98.80
674;DHT22;319;48.764;9.174;2023-11-19T16:51:11;14.10;99.00
674;DHT22;319;48.764;9.174;2023-11-19T16:53:43;14.10;99.20